sensor_id;sensor_type;location;lat;lon;timestamp;P1;durP1;ratioP1;P2;durP2;ratioP2
2892;SDS011;1456;51.840;12.184;2023-04-06T00:01:09;0.73;;;0.73;;
2892;SDS011;1456;51.840;12.184;2023-04-06T00:03:35;0.30;;;0.20;;
2892;SDS011;1456;51.840;12.184;2023-04-06T00:06:02;0.93;;;0.93;;
2892;SDS011;1456;51.840;12.184;2023-04-06T00:08:28;0.30;;;0.20;;
2892;SDS011;1456;51.840;12.184;2023-04-06T00:10:54;0.30;;;0.30;;
2892;SDS011;1456;51.840;12.184;2023-04-06T00:13:19;0.30;;;0.20;;
2892;SDS011;1456;51.840;12.184;2023-04-06T00:15:45;0.30;;;0.20;;
2892;SDS011;1456;51.840;12.184;2023-04-06T00:18:11;2.20;;;1.23;;
2892;SDS011;1456;51.840;12.184;2023-04-06T00:20:37;0.30;;;0.20;;
2892;SDS011;1456;51.840;12.184;2023-04-06T00:23:03;0.30;;;0.20;;
2892;SDS011;1456;51.840;12.184;2023-04-06T00:25:30;0.30;;;0.30;;
2892;SDS011;1456;51.840;12.184;2023-04-06T00:27:55;1.07;;;0.93;;
2892;SDS011;1456;51.840;12.184;2023-04-06T00:30:21;0.30;;;0.20;;
2892;SDS011;1456;51.840;12.184;2023-04-06T00:32:47;0.30;;;0.20;;
2892;SDS011;1456;51.840;12.184;2023-04-06T00:35:12;0.30;;;0.20;;
2892;SDS011;1456;51.840;12.184;2023-04-06T00:37:40;0.30;;;0.30;;
2892;SDS011;1456;51.840;12.184;2023-04-06T00:40:06;0.40;;;0.30;;
2892;SDS011;1456;51.840;12.184;2023-04-06T00:42:32;0.30;;;0.20;;
2892;SDS011;1456;51.840;12.184;2023-04-06T00:44:59;0.80;;;0.80;;
2892;SDS011;1456;51.840;12.184;2023-04-06T00:47:26;0.50;;;0.50;;
2892;SDS011;1456;51.840;12.184;2023-04-06T00:49:52;0.30;;;0.20;;
2892;SDS011;1456;51.840;12.184;2023-04-06T00:52:18;0.50;;;0.50;;
2892;SDS011;1456;51.840;12.184;2023-04-06T00:54:45;0.30;;;0.23;;
2892;SDS011;1456;51.840;12.184;2023-04-06T00:57:11;0.30;;;0.20;;
2892;SDS011;1456;51.840;12.184;2023-04-06T00:59:39;0.30;;;0.20;;
2892;SDS011;1456;51.840;12.184;2023-04-06T01:02:05;0.30;;;0.20;;
2892;SDS011;1456;51.840;12.184;2023-04-06T01:04:32;0.30;;;0.20;;
2892;SDS011;1456;51.840;12.184;2023-04-06T01:06:59;0.30;;;0.20;;
2892;SDS011;1456;51.840;12.184;2023-04-06T01:09:24;0.30;;;0.20;;
2892;SDS011;1456;51.840;12.184;2023-04-06T01:11:52;0.30;;;0.30;;
2892;SDS011;1456;51.840;12.184;2023-04-06T01:14:18;0.40;;;0.30;;
2892;SDS011;1456;51.840;12.184;2023-04-06T01:16:43;0.30;;;0.20;;
2892;SDS011;1456;51.840;12.184;2023-04-06T01:19:09;0.50;;;0.50;;
2892;SDS011;1456;51.840;12.184;2023-04-06T01:21:37;0.70;;;0.70;;
2892;SDS011;1456;51.840;12.184;2023-04-06T01:24:04;0.30;;;0.20;;
2892;SDS011;1456;51.840;12.184;2023-04-06T01:26:30;0.30;;;0.30;;
2892;SDS011;1456;51.840;12.184;2023-04-06T01:28:57;0.30;;;0.30;;
2892;SDS011;1456;51.840;12.184;2023-04-06T01:31:23;0.30;;;0.20;;
2892;SDS011;1456;51.840;12.184;2023-04-06T01:33:49;0.30;;;0.30;;
2892;SDS011;1456;51.840;12.184;2023-04-06T01:36:15;0.30;;;0.20;;
2892;SDS011;1456;51.840;12.184;2023-04-06T01:38:41;0.30;;;0.20;;
2892;SDS011;1456;51.840;12.184;2023-04-06T01:41:07;0.60;;;0.60;;
2892;SDS011;1456;51.840;12.184;2023-04-06T01:43:33;0.93;;;0.93;;
2892;SDS011;1456;51.840;12.184;2023-04-06T01:46:00;0.30;;;0.27;;
2892;SDS011;1456;51.840;12.184;2023-04-06T01:48:26;0.67;;;0.67;;
2892;SDS011;1456;51.840;12.184;2023-04-06T01:50:53;0.40;;;0.40;;
2892;SDS011;1456;51.840;12.184;2023-04-06T01:53:19;0.30;;;0.20;;
2892;SDS011;1456;51.840;12.184;2023-04-06T01:55:44;0.30;;;0.30;;
2892;SDS011;1456;51.840;12.184;2023-04-06T01:58:10;0.30;;;0.30;;
2892;SDS011;1456;51.840;12.184;2023-04-06T02:00:36;0.30;;;0.20;;
2892;SDS011;1456;51.840;12.184;2023-04-06T02:03:02;0.60;;;0.57;;
2892;SDS011;1456;51.840;12.184;2023-04-06T02:05:28;0.30;;;0.20;;
2892;SDS011;1456;51.840;12.184;2023-04-06T02:07:55;0.30;;;0.30;;
2892;SDS011;1456;51.840;12.184;2023-04-06T02:10:21;0.30;;;0.20;;
2892;SDS011;1456;51.840;12.184;2023-04-06T02:12:48;0.30;;;0.20;;
2892;SDS011;1456;51.840;12.184;2023-04-06T02:15:14;0.30;;;0.20;;
2892;SDS011;1456;51.840;12.184;2023-04-06T02:17:41;0.33;;;0.33;;
2892;SDS011;1456;51.840;12.184;2023-04-06T02:20:07;0.80;;;0.80;;
2892;SDS011;1456;51.840;12.184;2023-04-06T02:22:34;0.30;;;0.20;;
2892;SDS011;1456;51.840;12.184;2023-04-06T02:25:00;0.30;;;0.30;;
2892;SDS011;1456;51.840;12.184;2023-04-06T02:27:26;0.30;;;0.30;;
2892;SDS011;1456;51.840;12.184;2023-04-06T02:29:52;0.30;;;0.20;;
2892;SDS011;1456;51.840;12.184;2023-04-06T02:32:17;0.30;;;0.30;;
2892;SDS011;1456;51.840;12.184;2023-04-06T02:34:43;0.30;;;0.20;;
2892;SDS011;1456;51.840;12.184;2023-04-06T02:37:09;0.30;;;0.20;;
2892;SDS011;1456;51.840;12.184;2023-04-06T02:39:34;0.30;;;0.20;;
2892;SDS011;1456;51.840;12.184;2023-04-06T02:42:00;0.30;;;0.30;;
2892;SDS011;1456;51.840;12.184;2023-04-06T02:44:26;0.30;;;0.20;;
2892;SDS011;1456;51.840;12.184;2023-04-06T02:46:52;0.30;;;0.20;;
2892;SDS011;1456;51.840;12.184;2023-04-06T02:49:17;0.30;;;0.20;;
2892;SDS011;1456;51.840;12.184;2023-04-06T02:51:43;0.40;;;0.33;;
2892;SDS011;1456;51.840;12.184;2023-04-06T02:54:09;0.30;;;0.20;;
2892;SDS011;1456;51.840;12.184;2023-04-06T02:56:35;0.30;;;0.20;;
2892;SDS011;1456;51.840;12.184;2023-04-06T02:59:00;0.40;;;0.40;;
2892;SDS011;1456;51.840;12.184;2023-04-06T03:01:26;0.30;;;0.20;;
2892;SDS011;1456;51.840;12.184;2023-04-06T03:03:51;0.30;;;0.30;;
2892;SDS011;1456;51.840;12.184;2023-04-06T03:06:17;0.40;;;0.30;;
2892;SDS011;1456;51.840;12.184;2023-04-06T03:08:43;0.60;;;0.60;;
2892;SDS011;1456;51.840;12.184;2023-04-06T03:11:09;0.70;;;0.70;;
2892;SDS011;1456;51.840;12.184;2023-04-06T03:13:36;0.30;;;0.20;;
2892;SDS011;1456;51.840;12.184;2023-04-06T03:16:03;0.30;;;0.20;;
2892;SDS011;1456;51.840;12.184;2023-04-06T03:18:30;0.30;;;0.20;;
2892;SDS011;1456;51.840;12.184;2023-04-06T03:20:56;0.30;;;0.30;;
2892;SDS011;1456;51.840;12.184;2023-04-06T03:23:22;0.50;;;0.40;;
2892;SDS011;1456;51.840;12.184;2023-04-06T03:25:48;0.70;;;0.70;;
2892;SDS011;1456;51.840;12.184;2023-04-06T03:28:14;0.30;;;0.20;;
2892;SDS011;1456;51.840;12.184;2023-04-06T03:30:41;0.30;;;0.20;;
2892;SDS011;1456;51.840;12.184;2023-04-06T03:33:06;2.93;;;1.47;;
2892;SDS011;1456;51.840;12.184;2023-04-06T03:35:32;0.30;;;0.30;;
2892;SDS011;1456;51.840;12.184;2023-04-06T03:37:58;0.30;;;0.20;;
2892;SDS011;1456;51.840;12.184;2023-04-06T03:40:24;9.83;;;1.03;;
2892;SDS011;1456;51.840;12.184;2023-04-06T03:42:49;0.30;;;0.20;;
2892;SDS011;1456;51.840;12.184;2023-04-06T03:45:16;0.37;;;0.37;;
2892;SDS011;1456;51.840;12.184;2023-04-06T03:47:42;0.50;;;0.50;;
2892;SDS011;1456;51.840;12.184;2023-04-06T03:50:08;0.43;;;0.43;;
2892;SDS011;1456;51.840;12.184;2023-04-06T03:52:34;0.50;;;0.50;;
2892;SDS011;1456;51.840;12.184;2023-04-06T03:55:01;0.30;;;0.30;;
2892;SDS011;1456;51.840;12.184;2023-04-06T03:57:26;0.43;;;0.43;;
2892;SDS011;1456;51.840;12.184;2023-04-06T03:59:52;2.50;;;1.73;;
2892;SDS011;1456;51.840;12.184;2023-04-06T04:02:18;3.90;;;3.43;;
2892;SDS011;1456;51.840;12.184;2023-04-06T04:04:43;0.97;;;0.97;;
2892;SDS011;1456;51.840;12.184;2023-04-06T04:07:09;0.60;;;0.60;;
2892;SDS011;1456;51.840;12.184;2023-04-06T04:09:36;0.40;;;0.40;;
2892;SDS011;1456;51.840;12.184;2023-04-06T04:12:02;0.30;;;0.23;;
2892;SDS011;1456;51.840;12.184;2023-04-06T04:14:28;0.30;;;0.20;;
2892;SDS011;1456;51.840;12.184;2023-04-06T04:16:53;0.73;;;0.73;;
2892;SDS011;1456;51.840;12.184;2023-04-06T04:19:19;0.60;;;0.60;;
2892;SDS011;1456;51.840;12.184;2023-04-06T04:21:45;0.30;;;0.20;;
2892;SDS011;1456;51.840;12.184;2023-04-06T04:24:12;1.53;;;1.43;;
2892;SDS011;1456;51.840;12.184;2023-04-06T04:26:38;0.30;;;0.20;;
2892;SDS011;1456;51.840;12.184;2023-04-06T04:29:05;0.43;;;0.43;;
2892;SDS011;1456;51.840;12.184;2023-04-06T04:31:31;0.30;;;0.20;;
2892;SDS011;1456;51.840;12.184;2023-04-06T04:33:57;0.30;;;0.20;;
2892;SDS011;1456;51.840;12.184;2023-04-06T04:36:24;0.30;;;0.20;;
2892;SDS011;1456;51.840;12.184;2023-04-06T04:38:50;0.30;;;0.30;;
2892;SDS011;1456;51.840;12.184;2023-04-06T04:41:17;0.70;;;0.70;;
2892;SDS011;1456;51.840;12.184;2023-04-06T04:43:43;0.30;;;0.30;;
2892;SDS011;1456;51.840;12.184;2023-04-06T04:46:09;0.30;;;0.20;;
2892;SDS011;1456;51.840;12.184;2023-04-06T04:48:35;0.50;;;0.50;;
2892;SDS011;1456;51.840;12.184;2023-04-06T04:51:01;0.30;;;0.20;;
2892;SDS011;1456;51.840;12.184;2023-04-06T04:53:26;0.30;;;0.30;;
2892;SDS011;1456;51.840;12.184;2023-04-06T04:55:52;0.30;;;0.20;;
2892;SDS011;1456;51.840;12.184;2023-04-06T04:58:18;0.40;;;0.30;;
2892;SDS011;1456;51.840;12.184;2023-04-06T05:00:45;0.40;;;0.40;;
2892;SDS011;1456;51.840;12.184;2023-04-06T05:03:17;0.50;;;0.50;;
2892;SDS011;1456;51.840;12.184;2023-04-06T05:05:46;0.80;;;0.80;;
2892;SDS011;1456;51.840;12.184;2023-04-06T05:08:12;0.73;;;0.73;;
2892;SDS011;1456;51.840;12.184;2023-04-06T05:10:37;0.30;;;0.20;;
2892;SDS011;1456;51.840;12.184;2023-04-06T05:13:03;0.33;;;0.33;;
2892;SDS011;1456;51.840;12.184;2023-04-06T05:15:29;0.50;;;0.50;;
2892;SDS011;1456;51.840;12.184;2023-04-06T05:17:55;3.00;;;0.80;;
2892;SDS011;1456;51.840;12.184;2023-04-06T05:20:21;0.30;;;0.20;;
2892;SDS011;1456;51.840;12.184;2023-04-06T05:22:46;1.03;;;1.03;;
2892;SDS011;1456;51.840;12.184;2023-04-06T05:25:12;0.30;;;0.20;;
2892;SDS011;1456;51.840;12.184;2023-04-06T05:27:38;0.30;;;0.20;;
2892;SDS011;1456;51.840;12.184;2023-04-06T05:30:05;0.30;;;0.30;;
2892;SDS011;1456;51.840;12.184;2023-04-06T05:32:32;0.40;;;0.40;;
2892;SDS011;1456;51.840;12.184;2023-04-06T05:34:58;0.40;;;0.30;;
2892;SDS011;1456;51.840;12.184;2023-04-06T05:37:23;0.40;;;0.30;;
2892;SDS011;1456;51.840;12.184;2023-04-06T05:39:49;3.23;;;0.97;;
2892;SDS011;1456;51.840;12.184;2023-04-06T05:42:15;0.30;;;0.30;;
2892;SDS011;1456;51.840;12.184;2023-04-06T05:44:41;0.30;;;0.20;;
2892;SDS011;1456;51.840;12.184;2023-04-06T05:47:07;0.33;;;0.33;;
2892;SDS011;1456;51.840;12.184;2023-04-06T05:49:33;0.30;;;0.20;;
2892;SDS011;1456;51.840;12.184;2023-04-06T05:51:59;0.30;;;0.30;;
2892;SDS011;1456;51.840;12.184;2023-04-06T05:54:25;0.30;;;0.20;;
2892;SDS011;1456;51.840;12.184;2023-04-06T05:56:51;0.47;;;0.47;;
2892;SDS011;1456;51.840;12.184;2023-04-06T05:59:16;0.33;;;0.33;;
2892;SDS011;1456;51.840;12.184;2023-04-06T06:01:42;0.47;;;0.43;;
2892;SDS011;1456;51.840;12.184;2023-04-06T06:04:08;0.40;;;0.30;;
2892;SDS011;1456;51.840;12.184;2023-04-06T06:06:33;0.83;;;0.83;;
2892;SDS011;1456;51.840;12.184;2023-04-06T06:09:00;1.43;;;1.33;;
2892;SDS011;1456;51.840;12.184;2023-04-06T06:11:26;0.30;;;0.23;;
2892;SDS011;1456;51.840;12.184;2023-04-06T06:13:52;0.50;;;0.50;;
2892;SDS011;1456;51.840;12.184;2023-04-06T06:16:18;1.00;;;0.70;;
2892;SDS011;1456;51.840;12.184;2023-04-06T06:18:44;0.40;;;0.30;;
2892;SDS011;1456;51.840;12.184;2023-04-06T06:21:10;0.80;;;0.80;;
2892;SDS011;1456;51.840;12.184;2023-04-06T06:23:37;0.40;;;0.40;;
2892;SDS011;1456;51.840;12.184;2023-04-06T06:26:03;0.57;;;0.57;;
2892;SDS011;1456;51.840;12.184;2023-04-06T06:28:29;1.10;;;0.50;;
2892;SDS011;1456;51.840;12.184;2023-04-06T06:30:55;0.80;;;0.70;;
2892;SDS011;1456;51.840;12.184;2023-04-06T06:33:21;0.40;;;0.40;;
2892;SDS011;1456;51.840;12.184;2023-04-06T06:35:47;0.50;;;0.40;;
2892;SDS011;1456;51.840;12.184;2023-04-06T06:38:13;0.30;;;0.20;;
2892;SDS011;1456;51.840;12.184;2023-04-06T06:40:39;0.30;;;0.27;;
2892;SDS011;1456;51.840;12.184;2023-04-06T06:43:05;0.30;;;0.30;;
2892;SDS011;1456;51.840;12.184;2023-04-06T06:45:31;1.80;;;0.80;;
2892;SDS011;1456;51.840;12.184;2023-04-06T06:47:58;0.53;;;0.53;;
2892;SDS011;1456;51.840;12.184;2023-04-06T06:50:23;2.50;;;0.97;;
2892;SDS011;1456;51.840;12.184;2023-04-06T06:52:49;1.07;;;0.80;;
2892;SDS011;1456;51.840;12.184;2023-04-06T06:55:15;0.43;;;0.43;;
2892;SDS011;1456;51.840;12.184;2023-04-06T06:57:41;0.30;;;0.30;;
2892;SDS011;1456;51.840;12.184;2023-04-06T07:00:07;0.30;;;0.30;;
2892;SDS011;1456;51.840;12.184;2023-04-06T07:02:35;0.73;;;0.73;;
2892;SDS011;1456;51.840;12.184;2023-04-06T07:05:01;0.37;;;0.37;;
2892;SDS011;1456;51.840;12.184;2023-04-06T07:07:28;0.30;;;0.30;;
2892;SDS011;1456;51.840;12.184;2023-04-06T07:09:54;1.57;;;1.03;;
2892;SDS011;1456;51.840;12.184;2023-04-06T07:12:20;0.83;;;0.83;;
2892;SDS011;1456;51.840;12.184;2023-04-06T07:14:46;0.40;;;0.40;;
2892;SDS011;1456;51.840;12.184;2023-04-06T07:17:11;0.37;;;0.37;;
2892;SDS011;1456;51.840;12.184;2023-04-06T07:19:37;1.07;;;1.03;;
2892;SDS011;1456;51.840;12.184;2023-04-06T07:22:03;0.70;;;0.70;;
2892;SDS011;1456;51.840;12.184;2023-04-06T07:24:29;0.80;;;0.80;;
2892;SDS011;1456;51.840;12.184;2023-04-06T07:26:55;0.40;;;0.40;;
2892;SDS011;1456;51.840;12.184;2023-04-06T07:29:21;0.77;;;0.77;;
2892;SDS011;1456;51.840;12.184;2023-04-06T07:31:48;0.60;;;0.60;;
2892;SDS011;1456;51.840;12.184;2023-04-06T07:34:14;2.40;;;2.30;;
2892;SDS011;1456;51.840;12.184;2023-04-06T07:36:40;1.37;;;1.37;;
2892;SDS011;1456;51.840;12.184;2023-04-06T07:39:06;2.50;;;1.77;;
2892;SDS011;1456;51.840;12.184;2023-04-06T07:41:32;1.20;;;1.20;;
2892;SDS011;1456;51.840;12.184;2023-04-06T07:43:58;2.00;;;1.90;;
2892;SDS011;1456;51.840;12.184;2023-04-06T07:46:24;1.67;;;1.57;;
2892;SDS011;1456;51.840;12.184;2023-04-06T07:48:50;1.40;;;1.40;;
2892;SDS011;1456;51.840;12.184;2023-04-06T07:51:16;1.07;;;1.07;;
2892;SDS011;1456;51.840;12.184;2023-04-06T07:53:43;1.27;;;1.27;;
2892;SDS011;1456;51.840;12.184;2023-04-06T07:56:10;1.30;;;1.30;;
2892;SDS011;1456;51.840;12.184;2023-04-06T07:58:37;2.00;;;1.90;;
2892;SDS011;1456;51.840;12.184;2023-04-06T08:01:03;2.57;;;2.37;;
2892;SDS011;1456;51.840;12.184;2023-04-06T08:03:29;2.27;;;2.23;;
2892;SDS011;1456;51.840;12.184;2023-04-06T08:05:55;1.30;;;1.30;;
2892;SDS011;1456;51.840;12.184;2023-04-06T08:08:21;2.53;;;2.53;;
2892;SDS011;1456;51.840;12.184;2023-04-06T08:10:48;3.80;;;3.70;;
2892;SDS011;1456;51.840;12.184;2023-04-06T08:13:14;4.10;;;4.00;;
2892;SDS011;1456;51.840;12.184;2023-04-06T08:15:40;3.13;;;3.03;;
2892;SDS011;1456;51.840;12.184;2023-04-06T08:18:06;5.10;;;4.60;;
2892;SDS011;1456;51.840;12.184;2023-04-06T08:20:34;2.73;;;2.73;;
2892;SDS011;1456;51.840;12.184;2023-04-06T08:23:00;3.00;;;2.90;;
2892;SDS011;1456;51.840;12.184;2023-04-06T08:25:26;3.53;;;3.43;;
2892;SDS011;1456;51.840;12.184;2023-04-06T08:27:52;4.43;;;4.33;;
2892;SDS011;1456;51.840;12.184;2023-04-06T08:30:17;3.70;;;3.70;;
2892;SDS011;1456;51.840;12.184;2023-04-06T08:32:44;5.73;;;5.53;;
2892;SDS011;1456;51.840;12.184;2023-04-06T08:35:10;4.80;;;4.80;;
2892;SDS011;1456;51.840;12.184;2023-04-06T08:37:37;4.50;;;4.43;;
2892;SDS011;1456;51.840;12.184;2023-04-06T08:40:02;5.23;;;5.23;;
2892;SDS011;1456;51.840;12.184;2023-04-06T08:42:31;6.60;;;6.50;;
2892;SDS011;1456;51.840;12.184;2023-04-06T08:44:57;6.27;;;6.07;;
2892;SDS011;1456;51.840;12.184;2023-04-06T08:47:24;7.50;;;7.30;;
2892;SDS011;1456;51.840;12.184;2023-04-06T08:49:50;6.70;;;6.60;;
2892;SDS011;1456;51.840;12.184;2023-04-06T08:52:18;5.77;;;5.77;;
2892;SDS011;1456;51.840;12.184;2023-04-06T08:54:44;6.30;;;6.20;;
2892;SDS011;1456;51.840;12.184;2023-04-06T08:57:10;6.60;;;6.40;;
2892;SDS011;1456;51.840;12.184;2023-04-06T08:59:36;5.87;;;5.77;;
2892;SDS011;1456;51.840;12.184;2023-04-06T09:02:03;6.93;;;6.73;;
2892;SDS011;1456;51.840;12.184;2023-04-06T09:04:32;8.10;;;7.90;;
2892;SDS011;1456;51.840;12.184;2023-04-06T09:06:59;7.87;;;7.77;;
2892;SDS011;1456;51.840;12.184;2023-04-06T09:09:25;9.07;;;8.67;;
2892;SDS011;1456;51.840;12.184;2023-04-06T09:11:51;10.37;;;9.67;;
2892;SDS011;1456;51.840;12.184;2023-04-06T09:14:32;8.50;;;8.40;;
2892;SDS011;1456;51.840;12.184;2023-04-06T09:17:00;8.23;;;8.13;;
2892;SDS011;1456;51.840;12.184;2023-04-06T09:19:25;8.80;;;8.70;;
2892;SDS011;1456;51.840;12.184;2023-04-06T09:22:00;7.93;;;7.83;;
2892;SDS011;1456;51.840;12.184;2023-04-06T09:24:42;8.27;;;8.17;;
2892;SDS011;1456;51.840;12.184;2023-04-06T09:27:10;14.63;;;14.30;;
2892;SDS011;1456;51.840;12.184;2023-04-06T09:29:36;13.57;;;13.37;;
2892;SDS011;1456;51.840;12.184;2023-04-06T09:32:05;15.50;;;15.13;;
2892;SDS011;1456;51.840;12.184;2023-04-06T09:34:32;14.60;;;14.37;;
2892;SDS011;1456;51.840;12.184;2023-04-06T09:37:00;13.87;;;13.50;;
2892;SDS011;1456;51.840;12.184;2023-04-06T09:39:26;12.57;;;12.37;;
2892;SDS011;1456;51.840;12.184;2023-04-06T09:41:52;14.33;;;14.03;;
2892;SDS011;1456;51.840;12.184;2023-04-06T09:44:19;12.80;;;12.60;;
2892;SDS011;1456;51.840;12.184;2023-04-06T09:46:45;14.67;;;14.37;;
2892;SDS011;1456;51.840;12.184;2023-04-06T09:49:12;13.30;;;13.00;;
2892;SDS011;1456;51.840;12.184;2023-04-06T09:51:39;13.47;;;13.27;;
2892;SDS011;1456;51.840;12.184;2023-04-06T09:54:20;14.17;;;13.87;;
2892;SDS011;1456;51.840;12.184;2023-04-06T09:56:47;13.07;;;12.87;;
2892;SDS011;1456;51.840;12.184;2023-04-06T09:59:36;14.10;;;13.70;;
2892;SDS011;1456;51.840;12.184;2023-04-06T10:02:03;15.53;;;15.23;;
2892;SDS011;1456;51.840;12.184;2023-04-06T10:04:40;16.77;;;16.37;;
2892;SDS011;1456;51.840;12.184;2023-04-06T10:07:13;16.00;;;15.70;;
2892;SDS011;1456;51.840;12.184;2023-04-06T10:09:41;16.43;;;15.97;;
2892;SDS011;1456;51.840;12.184;2023-04-06T10:12:10;19.00;;;18.00;;
2892;SDS011;1456;51.840;12.184;2023-04-06T10:14:37;16.83;;;16.43;;
2892;SDS011;1456;51.840;12.184;2023-04-06T10:17:04;15.63;;;15.33;;
2892;SDS011;1456;51.840;12.184;2023-04-06T10:19:41;20.43;;;19.83;;
2892;SDS011;1456;51.840;12.184;2023-04-06T10:22:18;16.20;;;15.83;;
2892;SDS011;1456;51.840;12.184;2023-04-06T10:24:51;16.10;;;15.80;;
2892;SDS011;1456;51.840;12.184;2023-04-06T10:27:17;17.43;;;17.03;;
2892;SDS011;1456;51.840;12.184;2023-04-06T10:29:52;18.10;;;17.50;;
2892;SDS011;1456;51.840;12.184;2023-04-06T10:32:18;17.80;;;17.30;;
2892;SDS011;1456;51.840;12.184;2023-04-06T10:34:44;18.57;;;17.87;;
2892;SDS011;1456;51.840;12.184;2023-04-06T10:37:10;17.37;;;16.97;;
2892;SDS011;1456;51.840;12.184;2023-04-06T10:40:12;17.77;;;17.20;;
2892;SDS011;1456;51.840;12.184;2023-04-06T10:42:38;17.70;;;17.20;;
2892;SDS011;1456;51.840;12.184;2023-04-06T10:45:18;18.37;;;17.87;;
2892;SDS011;1456;51.840;12.184;2023-04-06T10:47:48;18.53;;;18.03;;
2892;SDS011;1456;51.840;12.184;2023-04-06T10:50:14;16.60;;;16.20;;
2892;SDS011;1456;51.840;12.184;2023-04-06T10:52:44;19.40;;;18.77;;
2892;SDS011;1456;51.840;12.184;2023-04-06T10:55:11;18.50;;;18.10;;
2892;SDS011;1456;51.840;12.184;2023-04-06T10:57:39;20.77;;;20.27;;
2892;SDS011;1456;51.840;12.184;2023-04-06T11:00:05;19.33;;;18.83;;
2892;SDS011;1456;51.840;12.184;2023-04-06T11:02:31;19.47;;;18.97;;
2892;SDS011;1456;51.840;12.184;2023-04-06T11:04:57;19.17;;;18.67;;
2892;SDS011;1456;51.840;12.184;2023-04-06T11:07:27;17.67;;;17.17;;
2892;SDS011;1456;51.840;12.184;2023-04-06T11:09:55;17.13;;;16.73;;
2892;SDS011;1456;51.840;12.184;2023-04-06T11:12:27;20.37;;;19.87;;
2892;SDS011;1456;51.840;12.184;2023-04-06T11:14:58;23.33;;;22.63;;
2892;SDS011;1456;51.840;12.184;2023-04-06T11:17:34;21.63;;;21.13;;
2892;SDS011;1456;51.840;12.184;2023-04-06T11:20:02;22.17;;;21.57;;
2892;SDS011;1456;51.840;12.184;2023-04-06T11:22:31;23.17;;;22.37;;
2892;SDS011;1456;51.840;12.184;2023-04-06T11:25:06;23.27;;;22.63;;
2892;SDS011;1456;51.840;12.184;2023-04-06T11:27:35;22.70;;;22.00;;
2892;SDS011;1456;51.840;12.184;2023-04-06T11:30:02;23.30;;;22.73;;
2892;SDS011;1456;51.840;12.184;2023-04-06T11:32:28;23.57;;;22.97;;
2892;SDS011;1456;51.840;12.184;2023-04-06T11:34:54;22.77;;;22.17;;
2892;SDS011;1456;51.840;12.184;2023-04-06T11:37:25;23.07;;;22.33;;
2892;SDS011;1456;51.840;12.184;2023-04-06T11:39:52;27.40;;;26.40;;
2892;SDS011;1456;51.840;12.184;2023-04-06T11:42:23;23.90;;;23.30;;
2892;SDS011;1456;51.840;12.184;2023-04-06T11:44:50;23.03;;;22.33;;
2892;SDS011;1456;51.840;12.184;2023-04-06T11:47:18;25.10;;;24.30;;
2892;SDS011;1456;51.840;12.184;2023-04-06T11:49:45;25.37;;;24.57;;
2892;SDS011;1456;51.840;12.184;2023-04-06T11:54:47;22.47;;;21.87;;
2892;SDS011;1456;51.840;12.184;2023-04-06T11:57:13;23.67;;;23.07;;
2892;SDS011;1456;51.840;12.184;2023-04-06T11:59:39;24.50;;;23.90;;
2892;SDS011;1456;51.840;12.184;2023-04-06T12:02:05;23.97;;;23.07;;
2892;SDS011;1456;51.840;12.184;2023-04-06T12:04:32;23.90;;;23.30;;
2892;SDS011;1456;51.840;12.184;2023-04-06T12:06:57;23.53;;;22.73;;
2892;SDS011;1456;51.840;12.184;2023-04-06T12:09:23;23.30;;;22.70;;
2892;SDS011;1456;51.840;12.184;2023-04-06T12:11:49;24.03;;;23.43;;
2892;SDS011;1456;51.840;12.184;2023-04-06T12:14:15;13.17;;;12.87;;
2892;SDS011;1456;51.840;12.184;2023-04-06T12:16:41;14.93;;;14.37;;
2892;SDS011;1456;51.840;12.184;2023-04-06T12:19:07;26.50;;;25.80;;
2892;SDS011;1456;51.840;12.184;2023-04-06T12:21:33;27.90;;;27.10;;
2892;SDS011;1456;51.840;12.184;2023-04-06T12:24:01;26.00;;;25.30;;
2892;SDS011;1456;51.840;12.184;2023-04-06T12:26:28;26.80;;;26.10;;
2892;SDS011;1456;51.840;12.184;2023-04-06T12:28:54;28.10;;;26.90;;
2892;SDS011;1456;51.840;12.184;2023-04-06T12:31:21;27.10;;;26.40;;
2892;SDS011;1456;51.840;12.184;2023-04-06T12:33:48;27.30;;;26.50;;
2892;SDS011;1456;51.840;12.184;2023-04-06T12:36:16;26.20;;;25.50;;
2892;SDS011;1456;51.840;12.184;2023-04-06T12:38:46;28.30;;;27.50;;
2892;SDS011;1456;51.840;12.184;2023-04-06T12:41:12;26.43;;;25.67;;
2892;SDS011;1456;51.840;12.184;2023-04-06T12:43:40;27.50;;;26.70;;
2892;SDS011;1456;51.840;12.184;2023-04-06T12:46:07;26.03;;;25.23;;
2892;SDS011;1456;51.840;12.184;2023-04-06T12:48:33;26.80;;;26.10;;
2892;SDS011;1456;51.840;12.184;2023-04-06T12:51:01;26.90;;;25.90;;
2892;SDS011;1456;51.840;12.184;2023-04-06T12:53:28;28.20;;;27.30;;
2892;SDS011;1456;51.840;12.184;2023-04-06T12:55:55;26.47;;;25.77;;
2892;SDS011;1456;51.840;12.184;2023-04-06T12:58:22;26.00;;;25.20;;
2892;SDS011;1456;51.840;12.184;2023-04-06T13:00:51;28.10;;;27.10;;
2892;SDS011;1456;51.840;12.184;2023-04-06T13:03:18;13.57;;;13.17;;
2892;SDS011;1456;51.840;12.184;2023-04-06T13:05:53;26.43;;;25.73;;
2892;SDS011;1456;51.840;12.184;2023-04-06T13:08:20;27.10;;;26.30;;
2892;SDS011;1456;51.840;12.184;2023-04-06T13:10:46;27.17;;;26.20;;
2892;SDS011;1456;51.840;12.184;2023-04-06T13:13:16;27.80;;;27.00;;
2892;SDS011;1456;51.840;12.184;2023-04-06T13:15:44;24.77;;;24.17;;
2892;SDS011;1456;51.840;12.184;2023-04-06T13:18:10;24.70;;;23.90;;
2892;SDS011;1456;51.840;12.184;2023-04-06T13:20:35;26.80;;;26.00;;
2892;SDS011;1456;51.840;12.184;2023-04-06T13:23:02;26.60;;;25.80;;
2892;SDS011;1456;51.840;12.184;2023-04-06T13:25:28;27.87;;;27.07;;
2892;SDS011;1456;51.840;12.184;2023-04-06T13:27:55;27.40;;;26.43;;
2892;SDS011;1456;51.840;12.184;2023-04-06T13:30:20;26.60;;;25.90;;
2892;SDS011;1456;51.840;12.184;2023-04-06T13:32:46;16.13;;;15.53;;
2892;SDS011;1456;51.840;12.184;2023-04-06T13:35:12;16.70;;;16.17;;
2892;SDS011;1456;51.840;12.184;2023-04-06T13:37:38;27.90;;;27.20;;
2892;SDS011;1456;51.840;12.184;2023-04-06T13:40:04;27.30;;;26.60;;
2892;SDS011;1456;51.840;12.184;2023-04-06T13:42:30;27.80;;;27.00;;
2892;SDS011;1456;51.840;12.184;2023-04-06T13:44:57;27.40;;;26.60;;
2892;SDS011;1456;51.840;12.184;2023-04-06T13:47:23;29.73;;;28.83;;
2892;SDS011;1456;51.840;12.184;2023-04-06T13:49:51;28.40;;;27.60;;
2892;SDS011;1456;51.840;12.184;2023-04-06T13:52:18;27.00;;;26.20;;
2892;SDS011;1456;51.840;12.184;2023-04-06T13:54:44;29.40;;;28.60;;
2892;SDS011;1456;51.840;12.184;2023-04-06T13:57:10;30.33;;;29.43;;
2892;SDS011;1456;51.840;12.184;2023-04-06T13:59:37;30.00;;;29.20;;
2892;SDS011;1456;51.840;12.184;2023-04-06T14:02:04;30.70;;;29.90;;
2892;SDS011;1456;51.840;12.184;2023-04-06T14:04:31;31.43;;;30.60;;
2892;SDS011;1456;51.840;12.184;2023-04-06T14:06:58;11.77;;;11.57;;
2892;SDS011;1456;51.840;12.184;2023-04-06T14:09:23;12.57;;;12.27;;
2892;SDS011;1456;51.840;12.184;2023-04-06T14:11:50;30.73;;;29.63;;
2892;SDS011;1456;51.840;12.184;2023-04-06T14:14:16;31.00;;;30.20;;
2892;SDS011;1456;51.840;12.184;2023-04-06T14:16:42;29.57;;;28.67;;
2892;SDS011;1456;51.840;12.184;2023-04-06T14:19:09;29.57;;;28.77;;
2892;SDS011;1456;51.840;12.184;2023-04-06T14:21:37;27.90;;;26.90;;
2892;SDS011;1456;51.840;12.184;2023-04-06T14:24:06;26.37;;;25.70;;
2892;SDS011;1456;51.840;12.184;2023-04-06T14:26:33;25.23;;;24.53;;
2892;SDS011;1456;51.840;12.184;2023-04-06T14:28:59;24.00;;;23.40;;
2892;SDS011;1456;51.840;12.184;2023-04-06T14:31:26;25.10;;;24.40;;
2892;SDS011;1456;51.840;12.184;2023-04-06T14:33:52;23.30;;;22.70;;
2892;SDS011;1456;51.840;12.184;2023-04-06T14:36:18;14.73;;;14.33;;
2892;SDS011;1456;51.840;12.184;2023-04-06T14:38:43;19.37;;;18.87;;
2892;SDS011;1456;51.840;12.184;2023-04-06T14:41:18;24.20;;;23.40;;
2892;SDS011;1456;51.840;12.184;2023-04-06T14:43:45;23.07;;;22.47;;
2892;SDS011;1456;51.840;12.184;2023-04-06T14:46:11;24.93;;;24.27;;
2892;SDS011;1456;51.840;12.184;2023-04-06T14:48:37;25.37;;;24.67;;
2892;SDS011;1456;51.840;12.184;2023-04-06T14:51:02;22.13;;;21.53;;